sensor_id;sensor_type;location;lat;lon;timestamp;P1;durP1;ratioP1;P2;durP2;ratioP2
18711;SDS011;9485;49.386;8.674;2023-04-25T00:03:47;5.53;;;4.00;;
18711;SDS011;9485;49.386;8.674;2023-04-25T00:09:08;4.27;;;3.63;;
18711;SDS011;9485;49.386;8.674;2023-04-25T00:14:31;3.17;;;2.80;;
18711;SDS011;9485;49.386;8.674;2023-04-25T00:19:53;4.03;;;3.20;;
18711;SDS011;9485;49.386;8.674;2023-04-25T00:25:13;3.70;;;3.40;;
18711;SDS011;9485;49.386;8.674;2023-04-25T00:30:35;3.50;;;3.20;;
18711;SDS011;9485;49.386;8.674;2023-04-25T00:35:56;4.20;;;3.13;;
18711;SDS011;9485;49.386;8.674;2023-04-25T00:41:16;3.87;;;3.37;;
18711;SDS011;9485;49.386;8.674;2023-04-25T00:46:39;4.40;;;3.73;;
18711;SDS011;9485;49.386;8.674;2023-04-25T00:52:01;4.00;;;3.53;;
18711;SDS011;9485;49.386;8.674;2023-04-25T00:57:22;4.00;;;3.60;;
18711;SDS011;9485;49.386;8.674;2023-04-25T01:02:44;4.10;;;3.70;;
18711;SDS011;9485;49.386;8.674;2023-04-25T01:08:06;3.93;;;3.50;;
18711;SDS011;9485;49.386;8.674;2023-04-25T01:13:27;4.40;;;3.20;;
18711;SDS011;9485;49.386;8.674;2023-04-25T01:18:49;4.93;;;3.40;;
18711;SDS011;9485;49.386;8.674;2023-04-25T01:24:12;4.17;;;3.47;;
18711;SDS011;9485;49.386;8.674;2023-04-25T01:29:33;3.80;;;3.50;;
18711;SDS011;9485;49.386;8.674;2023-04-25T01:34:55;4.00;;;3.13;;
18711;SDS011;9485;49.386;8.674;2023-04-25T01:40:17;3.70;;;3.40;;
18711;SDS011;9485;49.386;8.674;2023-04-25T01:45:41;5.00;;;3.83;;
18711;SDS011;9485;49.386;8.674;2023-04-25T01:51:03;4.50;;;3.70;;
18711;SDS011;9485;49.386;8.674;2023-04-25T01:56:27;4.60;;;4.10;;
18711;SDS011;9485;49.386;8.674;2023-04-25T02:01:50;5.37;;;3.70;;
18711;SDS011;9485;49.386;8.674;2023-04-25T02:07:18;6.63;;;4.13;;
18711;SDS011;9485;49.386;8.674;2023-04-25T02:12:46;5.13;;;4.33;;
18711;SDS011;9485;49.386;8.674;2023-04-25T02:18:15;6.90;;;4.53;;
18711;SDS011;9485;49.386;8.674;2023-04-25T02:23:36;5.57;;;4.80;;
18711;SDS011;9485;49.386;8.674;2023-04-25T02:28:58;5.03;;;4.40;;
18711;SDS011;9485;49.386;8.674;2023-04-25T02:34:19;5.77;;;4.73;;
18711;SDS011;9485;49.386;8.674;2023-04-25T02:39:40;4.23;;;3.83;;
18711;SDS011;9485;49.386;8.674;2023-04-25T02:45:02;5.97;;;4.37;;
18711;SDS011;9485;49.386;8.674;2023-04-25T02:50:24;5.30;;;4.70;;
18711;SDS011;9485;49.386;8.674;2023-04-25T02:55:44;7.03;;;4.53;;
18711;SDS011;9485;49.386;8.674;2023-04-25T03:01:07;5.43;;;4.60;;
18711;SDS011;9485;49.386;8.674;2023-04-25T03:06:27;5.80;;;4.50;;
18711;SDS011;9485;49.386;8.674;2023-04-25T03:11:47;5.60;;;4.53;;
18711;SDS011;9485;49.386;8.674;2023-04-25T03:17:09;5.37;;;4.40;;
18711;SDS011;9485;49.386;8.674;2023-04-25T03:22:29;5.83;;;5.00;;
18711;SDS011;9485;49.386;8.674;2023-04-25T03:27:50;6.80;;;4.80;;
18711;SDS011;9485;49.386;8.674;2023-04-25T03:33:12;5.10;;;4.43;;
18711;SDS011;9485;49.386;8.674;2023-04-25T03:38:33;5.53;;;4.37;;
18711;SDS011;9485;49.386;8.674;2023-04-25T03:43:54;6.77;;;5.23;;
18711;SDS011;9485;49.386;8.674;2023-04-25T03:49:17;6.37;;;4.93;;
18711;SDS011;9485;49.386;8.674;2023-04-25T03:54:48;7.03;;;5.90;;
18711;SDS011;9485;49.386;8.674;2023-04-25T04:00:12;5.27;;;4.70;;
18711;SDS011;9485;49.386;8.674;2023-04-25T04:05:35;7.33;;;5.40;;
18711;SDS011;9485;49.386;8.674;2023-04-25T04:10:59;8.30;;;5.60;;
18711;SDS011;9485;49.386;8.674;2023-04-25T04:16:20;6.37;;;5.57;;
18711;SDS011;9485;49.386;8.674;2023-04-25T04:21:42;6.67;;;5.63;;
18711;SDS011;9485;49.386;8.674;2023-04-25T04:27:03;5.93;;;5.33;;
18711;SDS011;9485;49.386;8.674;2023-04-25T04:32:37;8.17;;;6.00;;
18711;SDS011;9485;49.386;8.674;2023-04-25T04:38:00;7.00;;;5.23;;
18711;SDS011;9485;49.386;8.674;2023-04-25T04:43:25;8.87;;;6.30;;
18711;SDS011;9485;49.386;8.674;2023-04-25T04:49:04;8.13;;;6.20;;
18711;SDS011;9485;49.386;8.674;2023-04-25T04:54:55;6.97;;;5.20;;
18711;SDS011;9485;49.386;8.674;2023-04-25T05:00:32;7.33;;;6.00;;
18711;SDS011;9485;49.386;8.674;2023-04-25T05:06:06;8.40;;;5.57;;
18711;SDS011;9485;49.386;8.674;2023-04-25T05:11:44;7.60;;;5.70;;
18711;SDS011;9485;49.386;8.674;2023-04-25T05:17:22;6.93;;;5.90;;
18711;SDS011;9485;49.386;8.674;2023-04-25T05:23:06;7.10;;;5.43;;
18711;SDS011;9485;49.386;8.674;2023-04-25T05:28:48;8.43;;;5.80;;
18711;SDS011;9485;49.386;8.674;2023-04-25T05:34:28;8.13;;;6.27;;
18711;SDS011;9485;49.386;8.674;2023-04-25T05:39:52;8.73;;;6.70;;
18711;SDS011;9485;49.386;8.674;2023-04-25T05:45:44;9.53;;;6.40;;
18711;SDS011;9485;49.386;8.674;2023-04-25T05:51:23;10.00;;;6.27;;
18711;SDS011;9485;49.386;8.674;2023-04-25T05:57:17;7.80;;;6.23;;
18711;SDS011;9485;49.386;8.674;2023-04-25T06:02:42;8.00;;;6.13;;
18711;SDS011;9485;49.386;8.674;2023-04-25T06:08:06;7.57;;;6.00;;
18711;SDS011;9485;49.386;8.674;2023-04-25T06:13:26;8.50;;;6.23;;
18711;SDS011;9485;49.386;8.674;2023-04-25T06:18:50;7.93;;;6.03;;
18711;SDS011;9485;49.386;8.674;2023-04-25T06:24:11;8.20;;;6.70;;
18711;SDS011;9485;49.386;8.674;2023-04-25T06:29:32;8.97;;;6.90;;
18711;SDS011;9485;49.386;8.674;2023-04-25T06:34:55;8.13;;;6.20;;
18711;SDS011;9485;49.386;8.674;2023-04-25T06:40:16;10.07;;;6.67;;
18711;SDS011;9485;49.386;8.674;2023-04-25T06:45:38;11.23;;;6.97;;
18711;SDS011;9485;49.386;8.674;2023-04-25T06:51:03;10.30;;;7.83;;
18711;SDS011;9485;49.386;8.674;2023-04-25T06:56:24;9.53;;;7.60;;
18711;SDS011;9485;49.386;8.674;2023-04-25T07:01:53;9.93;;;7.63;;
18711;SDS011;9485;49.386;8.674;2023-04-25T07:07:19;9.83;;;7.60;;
18711;SDS011;9485;49.386;8.674;2023-04-25T07:12:46;9.50;;;7.33;;
18711;SDS011;9485;49.386;8.674;2023-04-25T07:18:07;14.03;;;8.23;;
18711;SDS011;9485;49.386;8.674;2023-04-25T07:23:29;10.07;;;8.10;;
18711;SDS011;9485;49.386;8.674;2023-04-25T07:28:53;9.57;;;7.07;;
18711;SDS011;9485;49.386;8.674;2023-04-25T07:34:14;9.13;;;6.63;;
18711;SDS011;9485;49.386;8.674;2023-04-25T07:39:37;12.80;;;6.93;;
18711;SDS011;9485;49.386;8.674;2023-04-25T07:44:59;9.80;;;6.40;;
18711;SDS011;9485;49.386;8.674;2023-04-25T07:50:22;9.77;;;6.37;;
18711;SDS011;9485;49.386;8.674;2023-04-25T07:55:44;7.87;;;5.50;;
18711;SDS011;9485;49.386;8.674;2023-04-25T08:01:10;10.00;;;6.03;;
18711;SDS011;9485;49.386;8.674;2023-04-25T08:06:43;14.47;;;6.63;;
18711;SDS011;9485;49.386;8.674;2023-04-25T08:12:11;10.07;;;5.90;;
18711;SDS011;9485;49.386;8.674;2023-04-25T08:17:33;10.17;;;6.37;;
18711;SDS011;9485;49.386;8.674;2023-04-25T08:22:54;13.23;;;7.00;;
18711;SDS011;9485;49.386;8.674;2023-04-25T08:28:25;9.57;;;6.50;;
18711;SDS011;9485;49.386;8.674;2023-04-25T08:33:48;10.50;;;6.10;;
18711;SDS011;9485;49.386;8.674;2023-04-25T08:39:16;10.23;;;6.37;;
18711;SDS011;9485;49.386;8.674;2023-04-25T08:44:54;10.40;;;6.70;;
18711;SDS011;9485;49.386;8.674;2023-04-25T08:50:23;11.80;;;6.50;;
18711;SDS011;9485;49.386;8.674;2023-04-25T08:55:45;11.30;;;5.83;;
18711;SDS011;9485;49.386;8.674;2023-04-25T09:01:10;8.57;;;6.00;;
18711;SDS011;9485;49.386;8.674;2023-04-25T09:06:42;7.90;;;5.97;;
18711;SDS011;9485;49.386;8.674;2023-04-25T09:12:04;7.73;;;5.47;;
18711;SDS011;9485;49.386;8.674;2023-04-25T09:17:27;7.53;;;5.03;;
18711;SDS011;9485;49.386;8.674;2023-04-25T09:23:00;8.70;;;5.50;;
18711;SDS011;9485;49.386;8.674;2023-04-25T09:28:24;7.17;;;4.87;;
18711;SDS011;9485;49.386;8.674;2023-04-25T09:33:48;7.17;;;4.77;;
18711;SDS011;9485;49.386;8.674;2023-04-25T09:39:11;7.07;;;4.93;;
18711;SDS011;9485;49.386;8.674;2023-04-25T09:44:45;6.53;;;4.60;;
18711;SDS011;9485;49.386;8.674;2023-04-25T09:50:14;7.33;;;5.03;;
18711;SDS011;9485;49.386;8.674;2023-04-25T09:55:41;5.13;;;4.47;;
18711;SDS011;9485;49.386;8.674;2023-04-25T10:01:06;7.03;;;4.28;;
18711;SDS011;9485;49.386;8.674;2023-04-25T10:06:40;6.35;;;4.05;;
18711;SDS011;9485;49.386;8.674;2023-04-25T10:12:04;7.85;;;3.90;;
18711;SDS011;9485;49.386;8.674;2023-04-25T10:17:27;5.60;;;3.40;;
18711;SDS011;9485;49.386;8.674;2023-04-25T10:22:49;6.78;;;4.78;;
18711;SDS011;9485;49.386;8.674;2023-04-25T10:28:18;5.78;;;4.15;;
18711;SDS011;9485;49.386;8.674;2023-04-25T10:33:40;6.82;;;4.15;;
18711;SDS011;9485;49.386;8.674;2023-04-25T10:39:04;6.07;;;4.35;;
18711;SDS011;9485;49.386;8.674;2023-04-25T10:44:28;6.90;;;4.38;;
18711;SDS011;9485;49.386;8.674;2023-04-25T10:49:50;6.20;;;4.00;;
18711;SDS011;9485;49.386;8.674;2023-04-25T10:55:12;5.68;;;4.07;;
18711;SDS011;9485;49.386;8.674;2023-04-25T11:00:33;4.75;;;3.80;;
18711;SDS011;9485;49.386;8.674;2023-04-25T11:05:59;6.43;;;3.75;;
18711;SDS011;9485;49.386;8.674;2023-04-25T11:11:24;5.00;;;3.72;;
18711;SDS011;9485;49.386;8.674;2023-04-25T11:16:45;5.25;;;4.20;;
18711;SDS011;9485;49.386;8.674;2023-04-25T11:22:06;5.17;;;4.47;;
18711;SDS011;9485;49.386;8.674;2023-04-25T11:27:28;8.30;;;4.87;;
18711;SDS011;9485;49.386;8.674;2023-04-25T11:32:49;6.57;;;3.93;;
18711;SDS011;9485;49.386;8.674;2023-04-25T11:38:11;7.27;;;4.57;;
18711;SDS011;9485;49.386;8.674;2023-04-25T11:43:33;6.70;;;3.93;;
18711;SDS011;9485;49.386;8.674;2023-04-25T11:48:54;6.00;;;3.87;;
18711;SDS011;9485;49.386;8.674;2023-04-25T11:54:17;4.70;;;3.53;;
18711;SDS011;9485;49.386;8.674;2023-04-25T11:59:38;6.40;;;3.57;;
18711;SDS011;9485;49.386;8.674;2023-04-25T12:04:59;5.57;;;3.47;;
18711;SDS011;9485;49.386;8.674;2023-04-25T12:10:21;3.67;;;3.20;;
18711;SDS011;9485;49.386;8.674;2023-04-25T12:15:46;6.03;;;3.63;;
18711;SDS011;9485;49.386;8.674;2023-04-25T12:21:07;5.07;;;3.50;;
18711;SDS011;9485;49.386;8.674;2023-04-25T12:32:12;5.37;;;3.53;;
18711;SDS011;9485;49.386;8.674;2023-04-25T12:37:32;4.03;;;3.00;;
18711;SDS011;9485;49.386;8.674;2023-04-25T12:42:53;4.77;;;3.07;;
18711;SDS011;9485;49.386;8.674;2023-04-25T12:48:15;4.60;;;3.50;;
18711;SDS011;9485;49.386;8.674;2023-04-25T12:53:36;5.00;;;3.40;;
18711;SDS011;9485;49.386;8.674;2023-04-25T12:58:59;4.67;;;3.40;;
18711;SDS011;9485;49.386;8.674;2023-04-25T13:04:23;4.43;;;3.40;;
18711;SDS011;9485;49.386;8.674;2023-04-25T13:09:43;5.80;;;3.77;;
18711;SDS011;9485;49.386;8.674;2023-04-25T13:15:05;3.77;;;3.30;;
18711;SDS011;9485;49.386;8.674;2023-04-25T13:20:29;5.47;;;3.57;;
18711;SDS011;9485;49.386;8.674;2023-04-25T13:25:49;4.10;;;3.30;;
18711;SDS011;9485;49.386;8.674;2023-04-25T13:31:10;4.70;;;4.07;;
18711;SDS011;9485;49.386;8.674;2023-04-25T13:36:32;6.13;;;4.00;;
18711;SDS011;9485;49.386;8.674;2023-04-25T13:41:53;5.47;;;4.10;;
18711;SDS011;9485;49.386;8.674;2023-04-25T13:47:14;4.93;;;4.30;;
18711;SDS011;9485;49.386;8.674;2023-04-25T13:52:36;4.63;;;4.23;;
18711;SDS011;9485;49.386;8.674;2023-04-25T13:57:57;5.63;;;4.13;;
18711;SDS011;9485;49.386;8.674;2023-04-25T14:03:18;5.23;;;4.07;;
18711;SDS011;9485;49.386;8.674;2023-04-25T14:08:40;6.17;;;4.37;;
18711;SDS011;9485;49.386;8.674;2023-04-25T14:14:01;6.90;;;4.43;;
18711;SDS011;9485;49.386;8.674;2023-04-25T14:19:22;7.33;;;4.50;;
18711;SDS011;9485;49.386;8.674;2023-04-25T14:24:45;6.30;;;4.67;;
18711;SDS011;9485;49.386;8.674;2023-04-25T14:30:06;4.53;;;3.80;;
18711;SDS011;9485;49.386;8.674;2023-04-25T14:35:30;7.13;;;4.53;;
18711;SDS011;9485;49.386;8.674;2023-04-25T14:40:52;6.20;;;4.13;;
18711;SDS011;9485;49.386;8.674;2023-04-25T14:46:14;6.87;;;4.30;;
18711;SDS011;9485;49.386;8.674;2023-04-25T14:51:34;5.10;;;4.27;;
18711;SDS011;9485;49.386;8.674;2023-04-25T14:56:56;4.60;;;4.07;;
18711;SDS011;9485;49.386;8.674;2023-04-25T15:02:17;6.33;;;4.13;;
18711;SDS011;9485;49.386;8.674;2023-04-25T15:07:38;5.53;;;3.77;;
18711;SDS011;9485;49.386;8.674;2023-04-25T15:13:01;5.23;;;4.00;;
18711;SDS011;9485;49.386;8.674;2023-04-25T15:18:23;4.73;;;3.77;;
18711;SDS011;9485;49.386;8.674;2023-04-25T15:23:44;6.00;;;4.03;;
18711;SDS011;9485;49.386;8.674;2023-04-25T15:29:06;6.93;;;4.03;;
18711;SDS011;9485;49.386;8.674;2023-04-25T15:34:27;4.53;;;3.73;;
18711;SDS011;9485;49.386;8.674;2023-04-25T15:39:49;5.23;;;4.10;;
18711;SDS011;9485;49.386;8.674;2023-04-25T15:45:26;5.67;;;3.63;;
18711;SDS011;9485;49.386;8.674;2023-04-25T15:50:47;5.47;;;3.60;;
18711;SDS011;9485;49.386;8.674;2023-04-25T15:56:08;6.50;;;3.23;;
18711;SDS011;9485;49.386;8.674;2023-04-25T16:01:30;5.23;;;3.30;;
18711;SDS011;9485;49.386;8.674;2023-04-25T16:06:52;6.13;;;3.70;;
18711;SDS011;9485;49.386;8.674;2023-04-25T16:12:13;4.00;;;3.17;;
18711;SDS011;9485;49.386;8.674;2023-04-25T16:17:36;4.23;;;3.40;;
18711;SDS011;9485;49.386;8.674;2023-04-25T16:22:58;4.33;;;3.40;;
18711;SDS011;9485;49.386;8.674;2023-04-25T16:28:19;7.57;;;3.63;;
18711;SDS011;9485;49.386;8.674;2023-04-25T16:33:41;5.37;;;3.30;;
18711;SDS011;9485;49.386;8.674;2023-04-25T16:39:02;7.07;;;3.87;;
18711;SDS011;9485;49.386;8.674;2023-04-25T16:44:26;10.20;;;3.13;;
18711;SDS011;9485;49.386;8.674;2023-04-25T16:49:48;4.27;;;2.70;;
18711;SDS011;9485;49.386;8.674;2023-04-25T16:55:09;4.50;;;3.00;;
18711;SDS011;9485;49.386;8.674;2023-04-25T17:00:30;3.10;;;2.70;;
18711;SDS011;9485;49.386;8.674;2023-04-25T17:05:55;6.07;;;2.77;;
18711;SDS011;9485;49.386;8.674;2023-04-25T17:11:18;3.63;;;2.53;;
18711;SDS011;9485;49.386;8.674;2023-04-25T17:16:39;3.67;;;2.67;;
18711;SDS011;9485;49.386;8.674;2023-04-25T17:22:01;4.23;;;2.60;;
18711;SDS011;9485;49.386;8.674;2023-04-25T17:27:22;3.27;;;2.60;;
18711;SDS011;9485;49.386;8.674;2023-04-25T17:32:42;4.20;;;2.40;;
18711;SDS011;9485;49.386;8.674;2023-04-25T17:38:05;6.33;;;2.70;;
18711;SDS011;9485;49.386;8.674;2023-04-25T17:43:26;3.90;;;2.40;;
18711;SDS011;9485;49.386;8.674;2023-04-25T17:48:48;4.63;;;2.70;;
18711;SDS011;9485;49.386;8.674;2023-04-25T17:54:10;3.83;;;2.40;;
18711;SDS011;9485;49.386;8.674;2023-04-25T17:59:31;5.33;;;2.67;;
18711;SDS011;9485;49.386;8.674;2023-04-25T18:04:51;3.83;;;2.27;;
18711;SDS011;9485;49.386;8.674;2023-04-25T18:10:14;6.33;;;2.30;;
18711;SDS011;9485;49.386;8.674;2023-04-25T18:15:35;5.57;;;2.20;;
18711;SDS011;9485;49.386;8.674;2023-04-25T18:20:56;5.07;;;2.40;;
18711;SDS011;9485;49.386;8.674;2023-04-25T18:26:18;6.07;;;2.43;;
18711;SDS011;9485;49.386;8.674;2023-04-25T18:31:40;2.60;;;2.37;;
18711;SDS011;9485;49.386;8.674;2023-04-25T18:37:01;3.57;;;2.40;;
18711;SDS011;9485;49.386;8.674;2023-04-25T18:42:23;2.87;;;2.40;;
18711;SDS011;9485;49.386;8.674;2023-04-25T18:47:44;3.57;;;2.60;;
18711;SDS011;9485;49.386;8.674;2023-04-25T18:53:04;6.10;;;2.37;;
18711;SDS011;9485;49.386;8.674;2023-04-25T18:58:27;3.10;;;2.10;;
18711;SDS011;9485;49.386;8.674;2023-04-25T19:03:47;3.20;;;2.50;;
18711;SDS011;9485;49.386;8.674;2023-04-25T19:09:13;4.30;;;2.50;;
18711;SDS011;9485;49.386;8.674;2023-04-25T19:14:35;5.33;;;2.30;;
18711;SDS011;9485;49.386;8.674;2023-04-25T19:19:56;4.47;;;2.50;;
18711;SDS011;9485;49.386;8.674;2023-04-25T19:25:16;3.13;;;2.07;;
18711;SDS011;9485;49.386;8.674;2023-04-25T19:30:38;3.67;;;2.30;;
18711;SDS011;9485;49.386;8.674;2023-04-25T19:35:59;5.07;;;2.60;;
18711;SDS011;9485;49.386;8.674;2023-04-25T19:41:19;3.03;;;2.23;;
18711;SDS011;9485;49.386;8.674;2023-04-25T19:46:41;5.37;;;2.50;;
18711;SDS011;9485;49.386;8.674;2023-04-25T19:52:03;2.47;;;2.03;;
18711;SDS011;9485;49.386;8.674;2023-04-25T19:57:24;3.07;;;2.20;;
18711;SDS011;9485;49.386;8.674;2023-04-25T20:02:50;2.87;;;2.30;;
18711;SDS011;9485;49.386;8.674;2023-04-25T20:08:11;3.33;;;2.27;;
18711;SDS011;9485;49.386;8.674;2023-04-25T20:13:32;2.40;;;1.93;;
18711;SDS011;9485;49.386;8.674;2023-04-25T20:18:54;3.67;;;2.00;;
18711;SDS011;9485;49.386;8.674;2023-04-25T20:24:15;3.63;;;2.30;;
18711;SDS011;9485;49.386;8.674;2023-04-25T20:29:35;9.97;;;4.57;;
18711;SDS011;9485;49.386;8.674;2023-04-25T20:34:57;5.23;;;3.00;;
18711;SDS011;9485;49.386;8.674;2023-04-25T20:40:18;6.63;;;3.43;;
18711;SDS011;9485;49.386;8.674;2023-04-25T20:45:39;6.67;;;3.90;;
18711;SDS011;9485;49.386;8.674;2023-04-25T20:51:01;5.83;;;4.47;;
18711;SDS011;9485;49.386;8.674;2023-04-25T20:56:25;6.90;;;5.03;;
18711;SDS011;9485;49.386;8.674;2023-04-25T21:01:45;5.60;;;4.43;;
18711;SDS011;9485;49.386;8.674;2023-04-25T21:07:07;5.40;;;4.90;;
18711;SDS011;9485;49.386;8.674;2023-04-25T21:12:30;6.30;;;4.87;;
18711;SDS011;9485;49.386;8.674;2023-04-25T21:17:51;6.77;;;5.33;;
18711;SDS011;9485;49.386;8.674;2023-04-25T21:23:13;7.13;;;4.57;;
18711;SDS011;9485;49.386;8.674;2023-04-25T21:28:34;5.50;;;4.70;;
18711;SDS011;9485;49.386;8.674;2023-04-25T21:33:55;7.13;;;5.67;;
18711;SDS011;9485;49.386;8.674;2023-04-25T21:39:17;6.00;;;4.70;;
18711;SDS011;9485;49.386;8.674;2023-04-25T21:44:37;7.00;;;4.63;;
18711;SDS011;9485;49.386;8.674;2023-04-25T21:49:58;7.17;;;4.60;;
18711;SDS011;9485;49.386;8.674;2023-04-25T21:55:21;5.00;;;4.10;;
18711;SDS011;9485;49.386;8.674;2023-04-25T22:00:41;8.10;;;4.67;;
18711;SDS011;9485;49.386;8.674;2023-04-25T22:06:02;6.60;;;3.90;;
18711;SDS011;9485;49.386;8.674;2023-04-25T22:11:24;5.13;;;3.90;;
18711;SDS011;9485;49.386;8.674;2023-04-25T22:16:46;5.27;;;3.90;;
18711;SDS011;9485;49.386;8.674;2023-04-25T22:22:07;5.17;;;4.10;;
18711;SDS011;9485;49.386;8.674;2023-04-25T22:27:29;6.57;;;4.07;;
18711;SDS011;9485;49.386;8.674;2023-04-25T22:32:50;5.30;;;3.67;;
18711;SDS011;9485;49.386;8.674;2023-04-25T22:38:10;4.40;;;3.73;;
18711;SDS011;9485;49.386;8.674;2023-04-25T22:43:32;5.03;;;3.90;;
18711;SDS011;9485;49.386;8.674;2023-04-25T22:48:53;5.47;;;4.33;;
18711;SDS011;9485;49.386;8.674;2023-04-25T22:54:13;9.77;;;4.50;;
18711;SDS011;9485;49.386;8.674;2023-04-25T22:59:35;4.77;;;4.23;;
18711;SDS011;9485;49.386;8.674;2023-04-25T23:04:55;5.33;;;4.17;;
18711;SDS011;9485;49.386;8.674;2023-04-25T23:10:17;4.23;;;3.83;;
18711;SDS011;9485;49.386;8.674;2023-04-25T23:15:39;3.90;;;3.50;;
18711;SDS011;9485;49.386;8.674;2023-04-25T23:21:00;4.80;;;3.57;;
18711;SDS011;9485;49.386;8.674;2023-04-25T23:26:21;4.13;;;3.50;;
18711;SDS011;9485;49.386;8.674;2023-04-25T23:31:43;6.03;;;3.67;;
18711;SDS011;9485;49.386;8.674;2023-04-25T23:37:04;4.13;;;3.70;;
18711;SDS011;9485;49.386;8.674;2023-04-25T23:42:25;6.27;;;3.20;;
18711;SDS011;9485;49.386;8.674;2023-04-25T23:47:47;5.43;;;3.60;;
18711;SDS011;9485;49.386;8.674;2023-04-25T23:53:08;4.50;;;3.57;;
18711;SDS011;9485;49.386;8.674;2023-04-25T23:58:29;7.50;;;4.00;;
